sensor_id;sensor_type;location;lat;lon;timestamp;P1;durP1;ratioP1;P2;durP2;ratioP2
35444;SDS011;21562;49.476;6.086;2022-11-20T00:00:28;12.55;;;8.85;;
35444;SDS011;21562;49.476;6.086;2022-11-20T00:02:54;12.35;;;8.43;;
35444;SDS011;21562;49.476;6.086;2022-11-20T00:05:19;13.40;;;8.32;;
35444;SDS011;21562;49.476;6.086;2022-11-20T00:07:46;13.90;;;8.27;;
35444;SDS011;21562;49.476;6.086;2022-11-20T00:10:11;12.18;;;8.32;;
35444;SDS011;21562;49.476;6.086;2022-11-20T00:12:37;15.20;;;7.95;;
35444;SDS011;21562;49.476;6.086;2022-11-20T00:15:03;16.45;;;7.80;;
35444;SDS011;21562;49.476;6.086;2022-11-20T00:17:29;16.75;;;8.07;;
35444;SDS011;21562;49.476;6.086;2022-11-20T00:19:55;15.10;;;8.55;;
35444;SDS011;21562;49.476;6.086;2022-11-20T00:22:20;16.75;;;8.63;;
35444;SDS011;21562;49.476;6.086;2022-11-20T00:24:46;13.07;;;8.13;;
35444;SDS011;21562;49.476;6.086;2022-11-20T00:27:11;15.35;;;8.00;;
35444;SDS011;21562;49.476;6.086;2022-11-20T00:29:37;11.93;;;7.75;;
35444;SDS011;21562;49.476;6.086;2022-11-20T00:32:03;16.10;;;7.45;;
35444;SDS011;21562;49.476;6.086;2022-11-20T00:34:28;14.00;;;7.10;;
35444;SDS011;21562;49.476;6.086;2022-11-20T00:36:54;14.68;;;7.15;;
35444;SDS011;21562;49.476;6.086;2022-11-20T00:39:20;19.50;;;7.07;;
35444;SDS011;21562;49.476;6.086;2022-11-20T00:41:45;13.32;;;6.97;;
35444;SDS011;21562;49.476;6.086;2022-11-20T00:44:11;11.18;;;6.85;;
35444;SDS011;21562;49.476;6.086;2022-11-20T00:46:36;14.18;;;7.15;;
35444;SDS011;21562;49.476;6.086;2022-11-20T00:49:02;13.52;;;6.47;;
35444;SDS011;21562;49.476;6.086;2022-11-20T00:51:28;14.50;;;7.05;;
35444;SDS011;21562;49.476;6.086;2022-11-20T00:53:59;13.25;;;7.03;;
35444;SDS011;21562;49.476;6.086;2022-11-20T00:56:27;11.45;;;7.30;;
35444;SDS011;21562;49.476;6.086;2022-11-20T00:58:52;10.15;;;5.82;;
35444;SDS011;21562;49.476;6.086;2022-11-20T01:01:19;10.57;;;6.43;;
35444;SDS011;21562;49.476;6.086;2022-11-20T01:03:47;13.38;;;7.47;;
35444;SDS011;21562;49.476;6.086;2022-11-20T01:06:15;18.00;;;6.75;;
35444;SDS011;21562;49.476;6.086;2022-11-20T01:08:43;10.02;;;6.55;;
35444;SDS011;21562;49.476;6.086;2022-11-20T01:11:20;11.95;;;6.13;;
35444;SDS011;21562;49.476;6.086;2022-11-20T01:13:49;10.57;;;6.78;;
35444;SDS011;21562;49.476;6.086;2022-11-20T01:16:20;11.20;;;6.00;;
35444;SDS011;21562;49.476;6.086;2022-11-20T01:18:48;16.70;;;6.45;;
35444;SDS011;21562;49.476;6.086;2022-11-20T01:21:16;12.88;;;6.78;;
35444;SDS011;21562;49.476;6.086;2022-11-20T01:23:44;10.77;;;7.30;;
35444;SDS011;21562;49.476;6.086;2022-11-20T01:26:12;10.70;;;6.97;;
35444;SDS011;21562;49.476;6.086;2022-11-20T01:28:43;12.82;;;6.20;;
35444;SDS011;21562;49.476;6.086;2022-11-20T01:33:43;11.30;;;6.82;;
35444;SDS011;21562;49.476;6.086;2022-11-20T01:36:10;10.90;;;6.75;;
35444;SDS011;21562;49.476;6.086;2022-11-20T01:38:37;13.15;;;7.57;;
35444;SDS011;21562;49.476;6.086;2022-11-20T01:41:03;11.45;;;7.03;;
35444;SDS011;21562;49.476;6.086;2022-11-20T01:43:29;20.95;;;8.85;;
35444;SDS011;21562;49.476;6.086;2022-11-20T01:48:34;16.27;;;9.18;;
35444;SDS011;21562;49.476;6.086;2022-11-20T01:51:05;15.40;;;7.85;;
35444;SDS011;21562;49.476;6.086;2022-11-20T01:53:37;14.23;;;7.45;;
35444;SDS011;21562;49.476;6.086;2022-11-20T01:56:05;14.60;;;8.05;;
35444;SDS011;21562;49.476;6.086;2022-11-20T01:58:33;14.80;;;9.88;;
35444;SDS011;21562;49.476;6.086;2022-11-20T02:01:03;12.75;;;7.75;;
35444;SDS011;21562;49.476;6.086;2022-11-20T02:03:29;13.98;;;9.00;;
35444;SDS011;21562;49.476;6.086;2022-11-20T02:05:57;13.50;;;7.70;;
35444;SDS011;21562;49.476;6.086;2022-11-20T02:08:38;14.63;;;7.63;;
35444;SDS011;21562;49.476;6.086;2022-11-20T02:11:04;12.23;;;7.78;;
35444;SDS011;21562;49.476;6.086;2022-11-20T02:13:30;16.95;;;7.90;;
35444;SDS011;21562;49.476;6.086;2022-11-20T02:18:42;16.05;;;6.75;;
35444;SDS011;21562;49.476;6.086;2022-11-20T02:21:12;13.40;;;7.15;;
35444;SDS011;21562;49.476;6.086;2022-11-20T02:23:39;9.02;;;6.03;;
35444;SDS011;21562;49.476;6.086;2022-11-20T02:26:20;11.63;;;6.60;;
35444;SDS011;21562;49.476;6.086;2022-11-20T02:28:48;11.00;;;6.07;;
35444;SDS011;21562;49.476;6.086;2022-11-20T02:31:14;12.95;;;6.57;;
35444;SDS011;21562;49.476;6.086;2022-11-20T02:33:39;9.25;;;5.97;;
35444;SDS011;21562;49.476;6.086;2022-11-20T02:36:05;10.07;;;6.15;;
35444;SDS011;21562;49.476;6.086;2022-11-20T02:38:33;7.70;;;5.60;;
35444;SDS011;21562;49.476;6.086;2022-11-20T02:40:59;11.85;;;6.18;;
35444;SDS011;21562;49.476;6.086;2022-11-20T02:43:24;8.70;;;5.72;;
35444;SDS011;21562;49.476;6.086;2022-11-20T02:45:50;9.68;;;6.40;;
35444;SDS011;21562;49.476;6.086;2022-11-20T02:48:15;8.93;;;5.80;;
35444;SDS011;21562;49.476;6.086;2022-11-20T02:50:41;8.43;;;5.63;;
35444;SDS011;21562;49.476;6.086;2022-11-20T02:53:07;12.85;;;6.13;;
35444;SDS011;21562;49.476;6.086;2022-11-20T02:55:33;8.55;;;5.60;;
35444;SDS011;21562;49.476;6.086;2022-11-20T02:57:59;9.25;;;6.13;;
35444;SDS011;21562;49.476;6.086;2022-11-20T03:00:24;11.23;;;6.00;;
35444;SDS011;21562;49.476;6.086;2022-11-20T03:02:50;9.63;;;6.22;;
35444;SDS011;21562;49.476;6.086;2022-11-20T03:05:15;9.35;;;6.32;;
35444;SDS011;21562;49.476;6.086;2022-11-20T03:07:42;10.52;;;6.53;;
35444;SDS011;21562;49.476;6.086;2022-11-20T03:10:08;9.63;;;5.57;;
35444;SDS011;21562;49.476;6.086;2022-11-20T03:12:34;9.35;;;6.78;;
35444;SDS011;21562;49.476;6.086;2022-11-20T03:15:00;12.65;;;7.18;;
35444;SDS011;21562;49.476;6.086;2022-11-20T03:17:26;12.18;;;7.65;;
35444;SDS011;21562;49.476;6.086;2022-11-20T03:19:51;12.80;;;7.32;;
35444;SDS011;21562;49.476;6.086;2022-11-20T03:22:17;10.32;;;6.75;;
35444;SDS011;21562;49.476;6.086;2022-11-20T03:24:43;17.67;;;7.45;;
35444;SDS011;21562;49.476;6.086;2022-11-20T03:27:08;12.60;;;8.18;;
35444;SDS011;21562;49.476;6.086;2022-11-20T03:29:37;16.23;;;10.02;;
35444;SDS011;21562;49.476;6.086;2022-11-20T03:32:03;16.88;;;9.65;;
35444;SDS011;21562;49.476;6.086;2022-11-20T03:34:28;14.23;;;9.55;;
35444;SDS011;21562;49.476;6.086;2022-11-20T03:36:54;16.85;;;10.07;;
35444;SDS011;21562;49.476;6.086;2022-11-20T03:39:19;15.18;;;9.52;;
35444;SDS011;21562;49.476;6.086;2022-11-20T03:41:45;17.92;;;10.30;;
35444;SDS011;21562;49.476;6.086;2022-11-20T03:44:11;18.05;;;10.32;;
35444;SDS011;21562;49.476;6.086;2022-11-20T03:46:37;16.23;;;9.50;;
35444;SDS011;21562;49.476;6.086;2022-11-20T03:49:03;18.40;;;10.10;;
35444;SDS011;21562;49.476;6.086;2022-11-20T03:51:30;15.57;;;9.63;;
35444;SDS011;21562;49.476;6.086;2022-11-20T03:53:58;19.10;;;9.63;;
35444;SDS011;21562;49.476;6.086;2022-11-20T03:56:26;14.73;;;9.07;;
35444;SDS011;21562;49.476;6.086;2022-11-20T03:58:54;13.05;;;8.30;;
35444;SDS011;21562;49.476;6.086;2022-11-20T04:01:21;14.32;;;8.75;;
35444;SDS011;21562;49.476;6.086;2022-11-20T04:03:48;15.98;;;8.77;;
35444;SDS011;21562;49.476;6.086;2022-11-20T04:06:16;15.93;;;9.02;;
35444;SDS011;21562;49.476;6.086;2022-11-20T04:08:43;13.60;;;9.10;;
35444;SDS011;21562;49.476;6.086;2022-11-20T04:13:39;17.48;;;9.35;;
35444;SDS011;21562;49.476;6.086;2022-11-20T04:16:05;14.52;;;9.35;;
35444;SDS011;21562;49.476;6.086;2022-11-20T04:18:32;15.98;;;9.23;;
35444;SDS011;21562;49.476;6.086;2022-11-20T04:20:58;17.63;;;9.80;;
35444;SDS011;21562;49.476;6.086;2022-11-20T04:23:24;15.18;;;9.23;;
35444;SDS011;21562;49.476;6.086;2022-11-20T04:25:50;19.98;;;9.65;;
35444;SDS011;21562;49.476;6.086;2022-11-20T04:28:15;17.42;;;10.45;;
35444;SDS011;21562;49.476;6.086;2022-11-20T04:30:41;17.02;;;9.95;;
35444;SDS011;21562;49.476;6.086;2022-11-20T04:33:07;17.05;;;9.05;;
35444;SDS011;21562;49.476;6.086;2022-11-20T04:35:36;17.45;;;9.55;;
35444;SDS011;21562;49.476;6.086;2022-11-20T04:38:02;16.83;;;9.43;;
35444;SDS011;21562;49.476;6.086;2022-11-20T04:40:28;16.17;;;9.57;;
35444;SDS011;21562;49.476;6.086;2022-11-20T04:42:55;16.30;;;9.20;;
35444;SDS011;21562;49.476;6.086;2022-11-20T04:45:21;16.02;;;9.20;;
35444;SDS011;21562;49.476;6.086;2022-11-20T04:47:48;15.73;;;9.05;;
35444;SDS011;21562;49.476;6.086;2022-11-20T04:50:14;14.75;;;9.00;;
35444;SDS011;21562;49.476;6.086;2022-11-20T04:52:40;14.75;;;8.85;;
35444;SDS011;21562;49.476;6.086;2022-11-20T04:55:05;12.38;;;9.05;;
35444;SDS011;21562;49.476;6.086;2022-11-20T04:57:32;13.93;;;8.15;;
35444;SDS011;21562;49.476;6.086;2022-11-20T04:59:57;14.68;;;8.40;;
35444;SDS011;21562;49.476;6.086;2022-11-20T05:02:23;14.88;;;8.65;;
35444;SDS011;21562;49.476;6.086;2022-11-20T05:04:48;13.55;;;8.68;;
35444;SDS011;21562;49.476;6.086;2022-11-20T05:07:14;14.80;;;8.07;;
35444;SDS011;21562;49.476;6.086;2022-11-20T05:09:40;14.43;;;7.45;;
35444;SDS011;21562;49.476;6.086;2022-11-20T05:12:06;17.88;;;8.93;;
35444;SDS011;21562;49.476;6.086;2022-11-20T05:14:33;12.00;;;7.90;;
35444;SDS011;21562;49.476;6.086;2022-11-20T05:16:58;13.05;;;7.68;;
35444;SDS011;21562;49.476;6.086;2022-11-20T05:19:24;13.63;;;7.88;;
35444;SDS011;21562;49.476;6.086;2022-11-20T05:21:50;12.30;;;7.25;;
35444;SDS011;21562;49.476;6.086;2022-11-20T05:24:15;14.00;;;7.50;;
35444;SDS011;21562;49.476;6.086;2022-11-20T05:26:41;11.30;;;7.32;;
35444;SDS011;21562;49.476;6.086;2022-11-20T05:29:09;13.18;;;6.78;;
35444;SDS011;21562;49.476;6.086;2022-11-20T05:31:35;10.48;;;6.88;;
35444;SDS011;21562;49.476;6.086;2022-11-20T05:34:02;10.55;;;6.85;;
35444;SDS011;21562;49.476;6.086;2022-11-20T05:36:27;10.07;;;7.05;;
35444;SDS011;21562;49.476;6.086;2022-11-20T05:38:54;10.23;;;5.80;;
35444;SDS011;21562;49.476;6.086;2022-11-20T05:41:20;12.02;;;6.00;;
35444;SDS011;21562;49.476;6.086;2022-11-20T05:43:46;7.28;;;4.85;;
35444;SDS011;21562;49.476;6.086;2022-11-20T05:46:14;9.32;;;5.60;;
35444;SDS011;21562;49.476;6.086;2022-11-20T05:48:41;9.00;;;6.07;;
35444;SDS011;21562;49.476;6.086;2022-11-20T05:51:11;6.80;;;5.32;;
35444;SDS011;21562;49.476;6.086;2022-11-20T05:53:41;7.68;;;5.05;;
35444;SDS011;21562;49.476;6.086;2022-11-20T05:56:09;10.52;;;5.30;;
35444;SDS011;21562;49.476;6.086;2022-11-20T05:58:37;8.65;;;4.90;;
35444;SDS011;21562;49.476;6.086;2022-11-20T06:01:13;9.07;;;4.97;;
35444;SDS011;21562;49.476;6.086;2022-11-20T06:03:44;6.82;;;5.13;;
35444;SDS011;21562;49.476;6.086;2022-11-20T06:06:12;9.73;;;5.25;;
35444;SDS011;21562;49.476;6.086;2022-11-20T06:08:38;11.00;;;5.38;;
35444;SDS011;21562;49.476;6.086;2022-11-20T06:11:08;7.93;;;5.75;;
35444;SDS011;21562;49.476;6.086;2022-11-20T06:13:35;10.15;;;5.47;;
35444;SDS011;21562;49.476;6.086;2022-11-20T06:16:01;8.77;;;5.38;;
35444;SDS011;21562;49.476;6.086;2022-11-20T06:18:27;8.50;;;5.25;;
35444;SDS011;21562;49.476;6.086;2022-11-20T06:23:27;11.55;;;5.72;;
35444;SDS011;21562;49.476;6.086;2022-11-20T06:25:54;11.43;;;5.68;;
35444;SDS011;21562;49.476;6.086;2022-11-20T06:28:20;7.90;;;5.45;;
35444;SDS011;21562;49.476;6.086;2022-11-20T06:30:45;13.75;;;6.47;;
35444;SDS011;21562;49.476;6.086;2022-11-20T06:33:11;14.23;;;6.25;;
35444;SDS011;21562;49.476;6.086;2022-11-20T06:35:36;8.88;;;5.38;;
35444;SDS011;21562;49.476;6.086;2022-11-20T06:38:02;15.98;;;7.03;;
35444;SDS011;21562;49.476;6.086;2022-11-20T06:40:28;12.23;;;6.57;;
35444;SDS011;21562;49.476;6.086;2022-11-20T06:42:54;13.95;;;7.28;;
35444;SDS011;21562;49.476;6.086;2022-11-20T06:45:20;13.30;;;6.82;;
35444;SDS011;21562;49.476;6.086;2022-11-20T06:47:46;13.32;;;7.45;;
35444;SDS011;21562;49.476;6.086;2022-11-20T06:50:12;12.18;;;7.45;;
35444;SDS011;21562;49.476;6.086;2022-11-20T06:52:38;16.45;;;7.30;;
35444;SDS011;21562;49.476;6.086;2022-11-20T06:55:03;16.10;;;7.68;;
35444;SDS011;21562;49.476;6.086;2022-11-20T06:57:29;14.43;;;7.30;;
35444;SDS011;21562;49.476;6.086;2022-11-20T06:59:55;15.20;;;8.13;;
35444;SDS011;21562;49.476;6.086;2022-11-20T07:02:20;12.77;;;7.63;;
35444;SDS011;21562;49.476;6.086;2022-11-20T07:04:46;14.05;;;7.40;;
35444;SDS011;21562;49.476;6.086;2022-11-20T07:07:12;12.05;;;7.43;;
35444;SDS011;21562;49.476;6.086;2022-11-20T07:09:37;18.30;;;7.85;;
35444;SDS011;21562;49.476;6.086;2022-11-20T07:12:03;17.38;;;7.78;;
35444;SDS011;21562;49.476;6.086;2022-11-20T07:14:28;13.38;;;6.70;;
35444;SDS011;21562;49.476;6.086;2022-11-20T07:16:54;19.05;;;7.82;;
35444;SDS011;21562;49.476;6.086;2022-11-20T07:19:20;13.63;;;7.82;;
35444;SDS011;21562;49.476;6.086;2022-11-20T07:21:45;13.65;;;7.05;;
35444;SDS011;21562;49.476;6.086;2022-11-20T07:24:11;16.15;;;7.80;;
35444;SDS011;21562;49.476;6.086;2022-11-20T07:26:37;17.45;;;7.30;;
35444;SDS011;21562;49.476;6.086;2022-11-20T07:29:02;12.30;;;7.18;;
35444;SDS011;21562;49.476;6.086;2022-11-20T07:31:28;13.30;;;6.63;;
35444;SDS011;21562;49.476;6.086;2022-11-20T07:33:54;16.02;;;6.45;;
35444;SDS011;21562;49.476;6.086;2022-11-20T07:36:19;11.68;;;6.00;;
35444;SDS011;21562;49.476;6.086;2022-11-20T07:38:45;16.95;;;6.95;;
35444;SDS011;21562;49.476;6.086;2022-11-20T07:41:10;13.13;;;6.40;;
35444;SDS011;21562;49.476;6.086;2022-11-20T07:43:36;11.27;;;6.03;;
35444;SDS011;21562;49.476;6.086;2022-11-20T07:46:02;11.88;;;6.40;;
35444;SDS011;21562;49.476;6.086;2022-11-20T07:48:28;16.88;;;7.22;;
35444;SDS011;21562;49.476;6.086;2022-11-20T07:50:54;12.68;;;6.43;;
35444;SDS011;21562;49.476;6.086;2022-11-20T07:53:20;13.30;;;5.72;;
35444;SDS011;21562;49.476;6.086;2022-11-20T07:55:47;10.80;;;5.95;;
35444;SDS011;21562;49.476;6.086;2022-11-20T07:58:13;18.20;;;7.20;;
35444;SDS011;21562;49.476;6.086;2022-11-20T08:00:39;13.25;;;6.60;;
35444;SDS011;21562;49.476;6.086;2022-11-20T08:03:05;15.88;;;6.55;;
35444;SDS011;21562;49.476;6.086;2022-11-20T08:05:31;14.65;;;6.43;;
35444;SDS011;21562;49.476;6.086;2022-11-20T08:07:57;12.57;;;6.53;;
35444;SDS011;21562;49.476;6.086;2022-11-20T08:10:23;14.75;;;7.20;;
35444;SDS011;21562;49.476;6.086;2022-11-20T08:12:49;17.35;;;7.05;;
35444;SDS011;21562;49.476;6.086;2022-11-20T08:15:35;14.25;;;6.90;;
35444;SDS011;21562;49.476;6.086;2022-11-20T08:18:09;13.68;;;7.07;;
35444;SDS011;21562;49.476;6.086;2022-11-20T08:20:36;16.15;;;6.95;;
35444;SDS011;21562;49.476;6.086;2022-11-20T08:23:03;12.75;;;6.53;;
35444;SDS011;21562;49.476;6.086;2022-11-20T08:25:33;18.02;;;7.35;;
35444;SDS011;21562;49.476;6.086;2022-11-20T08:28:00;22.52;;;6.90;;
35444;SDS011;21562;49.476;6.086;2022-11-20T08:30:28;14.63;;;6.85;;
35444;SDS011;21562;49.476;6.086;2022-11-20T08:32:54;18.13;;;7.63;;
35444;SDS011;21562;49.476;6.086;2022-11-20T08:35:25;16.17;;;6.80;;
35444;SDS011;21562;49.476;6.086;2022-11-20T08:37:51;17.02;;;7.72;;
35444;SDS011;21562;49.476;6.086;2022-11-20T08:40:17;16.70;;;6.93;;
35444;SDS011;21562;49.476;6.086;2022-11-20T08:42:49;21.83;;;6.72;;
35444;SDS011;21562;49.476;6.086;2022-11-20T08:45:16;9.98;;;6.68;;
35444;SDS011;21562;49.476;6.086;2022-11-20T08:47:42;14.43;;;6.90;;
35444;SDS011;21562;49.476;6.086;2022-11-20T08:50:09;17.23;;;6.22;;
35444;SDS011;21562;49.476;6.086;2022-11-20T08:52:36;19.38;;;6.15;;
35444;SDS011;21562;49.476;6.086;2022-11-20T08:55:03;19.13;;;6.47;;
35444;SDS011;21562;49.476;6.086;2022-11-20T08:57:31;21.05;;;6.18;;
35444;SDS011;21562;49.476;6.086;2022-11-20T09:00:00;13.10;;;5.28;;
35444;SDS011;21562;49.476;6.086;2022-11-20T09:02:26;9.98;;;4.78;;
35444;SDS011;21562;49.476;6.086;2022-11-20T09:04:52;7.95;;;4.15;;
35444;SDS011;21562;49.476;6.086;2022-11-20T09:07:18;12.18;;;3.90;;
35444;SDS011;21562;49.476;6.086;2022-11-20T09:09:44;12.38;;;5.18;;
35444;SDS011;21562;49.476;6.086;2022-11-20T09:12:10;8.60;;;4.60;;
35444;SDS011;21562;49.476;6.086;2022-11-20T09:14:36;11.30;;;4.05;;
35444;SDS011;21562;49.476;6.086;2022-11-20T09:17:01;14.57;;;4.68;;
35444;SDS011;21562;49.476;6.086;2022-11-20T09:19:27;12.50;;;4.28;;
35444;SDS011;21562;49.476;6.086;2022-11-20T09:21:52;18.90;;;5.05;;
35444;SDS011;21562;49.476;6.086;2022-11-20T09:24:18;11.95;;;5.20;;
35444;SDS011;21562;49.476;6.086;2022-11-20T09:26:46;14.15;;;4.68;;
35444;SDS011;21562;49.476;6.086;2022-11-20T09:29:11;15.10;;;4.57;;
35444;SDS011;21562;49.476;6.086;2022-11-20T09:31:37;13.45;;;4.90;;
35444;SDS011;21562;49.476;6.086;2022-11-20T09:34:03;13.63;;;4.72;;
35444;SDS011;21562;49.476;6.086;2022-11-20T09:36:28;15.00;;;5.20;;
35444;SDS011;21562;49.476;6.086;2022-11-20T09:38:54;14.52;;;5.28;;
35444;SDS011;21562;49.476;6.086;2022-11-20T09:41:29;11.18;;;5.38;;
35444;SDS011;21562;49.476;6.086;2022-11-20T09:47:07;13.13;;;4.65;;
35444;SDS011;21562;49.476;6.086;2022-11-20T09:49:45;13.98;;;5.88;;
35444;SDS011;21562;49.476;6.086;2022-11-20T09:55:11;13.43;;;5.72;;
35444;SDS011;21562;49.476;6.086;2022-11-20T09:57:40;10.57;;;5.38;;
35444;SDS011;21562;49.476;6.086;2022-11-20T10:00:11;16.45;;;5.43;;
35444;SDS011;21562;49.476;6.086;2022-11-20T10:02:41;12.68;;;5.00;;
35444;SDS011;21562;49.476;6.086;2022-11-20T10:13:13;14.07;;;4.63;;
35444;SDS011;21562;49.476;6.086;2022-11-20T10:20:48;10.38;;;4.78;;
35444;SDS011;21562;49.476;6.086;2022-11-20T10:23:40;8.88;;;4.50;;
35444;SDS011;21562;49.476;6.086;2022-11-20T10:27:12;12.52;;;4.35;;
35444;SDS011;21562;49.476;6.086;2022-11-20T10:29:18;11.55;;;4.57;;
35444;SDS011;21562;49.476;6.086;2022-11-20T10:31:51;14.90;;;4.78;;
35444;SDS011;21562;49.476;6.086;2022-11-20T10:34:30;10.35;;;4.15;;
35444;SDS011;21562;49.476;6.086;2022-11-20T10:37:09;11.90;;;4.68;;
35444;SDS011;21562;49.476;6.086;2022-11-20T10:42:29;8.80;;;3.75;;
35444;SDS011;21562;49.476;6.086;2022-11-20T10:45:26;11.93;;;3.35;;
35444;SDS011;21562;49.476;6.086;2022-11-20T10:48:24;11.77;;;3.60;;
35444;SDS011;21562;49.476;6.086;2022-11-20T10:50:56;17.00;;;3.00;;
35444;SDS011;21562;49.476;6.086;2022-11-20T10:53:54;9.40;;;3.15;;
35444;SDS011;21562;49.476;6.086;2022-11-20T10:56:47;9.15;;;3.03;;
35444;SDS011;21562;49.476;6.086;2022-11-20T11:02:16;7.45;;;2.70;;
35444;SDS011;21562;49.476;6.086;2022-11-20T11:04:45;9.18;;;3.60;;
35444;SDS011;21562;49.476;6.086;2022-11-20T11:07:20;12.27;;;2.80;;
35444;SDS011;21562;49.476;6.086;2022-11-20T11:09:53;8.43;;;2.60;;
35444;SDS011;21562;49.476;6.086;2022-11-20T11:12:26;8.00;;;2.55;;
35444;SDS011;21562;49.476;6.086;2022-11-20T11:14:54;7.82;;;2.45;;
35444;SDS011;21562;49.476;6.086;2022-11-20T11:17:31;11.82;;;2.42;;
35444;SDS011;21562;49.476;6.086;2022-11-20T11:19:58;8.75;;;2.50;;
35444;SDS011;21562;49.476;6.086;2022-11-20T11:22:24;9.02;;;2.08;;
35444;SDS011;21562;49.476;6.086;2022-11-20T11:24:51;10.25;;;2.70;;
35444;SDS011;21562;49.476;6.086;2022-11-20T11:27:17;12.15;;;2.75;;
35444;SDS011;21562;49.476;6.086;2022-11-20T11:29:43;6.20;;;2.35;;
35444;SDS011;21562;49.476;6.086;2022-11-20T11:32:14;10.88;;;2.50;;
35444;SDS011;21562;49.476;6.086;2022-11-20T11:34:42;9.02;;;2.00;;
35444;SDS011;21562;49.476;6.086;2022-11-20T11:37:18;8.65;;;2.30;;
35444;SDS011;21562;49.476;6.086;2022-11-20T11:39:48;9.40;;;2.22;;
35444;SDS011;21562;49.476;6.086;2022-11-20T11:42:16;3.38;;;1.73;;
35444;SDS011;21562;49.476;6.086;2022-11-20T11:44:44;8.98;;;1.88;;
35444;SDS011;21562;49.476;6.086;2022-11-20T11:47:33;6.40;;;1.92;;
35444;SDS011;21562;49.476;6.086;2022-11-20T11:53:34;7.32;;;2.60;;
35444;SDS011;21562;49.476;6.086;2022-11-20T12:01:50;10.75;;;2.17;;
35444;SDS011;21562;49.476;6.086;2022-11-20T12:04:10;8.50;;;1.95;;
35444;SDS011;21562;49.476;6.086;2022-11-20T12:06:42;11.02;;;1.83;;
35444;SDS011;21562;49.476;6.086;2022-11-20T12:09:11;6.68;;;1.98;;
35444;SDS011;21562;49.476;6.086;2022-11-20T12:11:49;9.70;;;1.98;;
35444;SDS011;21562;49.476;6.086;2022-11-20T12:14:37;11.02;;;1.60;;
35444;SDS011;21562;49.476;6.086;2022-11-20T12:17:05;10.15;;;2.40;;
35444;SDS011;21562;49.476;6.086;2022-11-20T12:19:34;8.10;;;2.00;;
35444;SDS011;21562;49.476;6.086;2022-11-20T12:27:53;7.32;;;2.90;;
35444;SDS011;21562;49.476;6.086;2022-11-20T12:30:24;8.02;;;1.92;;
35444;SDS011;21562;49.476;6.086;2022-11-20T12:44:10;9.93;;;2.33;;
35444;SDS011;21562;49.476;6.086;2022-11-20T12:50:19;9.38;;;1.98;;
35444;SDS011;21562;49.476;6.086;2022-11-20T12:52:32;10.10;;;1.98;;
35444;SDS011;21562;49.476;6.086;2022-11-20T13:00:54;10.30;;;1.85;;
35444;SDS011;21562;49.476;6.086;2022-11-20T13:06:18;6.93;;;1.52;;
35444;SDS011;21562;49.476;6.086;2022-11-20T13:08:54;7.35;;;1.80;;
35444;SDS011;21562;49.476;6.086;2022-11-20T13:14:51;6.07;;;1.67;;
35444;SDS011;21562;49.476;6.086;2022-11-20T13:17:19;5.97;;;1.70;;
35444;SDS011;21562;49.476;6.086;2022-11-20T13:19:56;9.65;;;1.77;;
35444;SDS011;21562;49.476;6.086;2022-11-20T13:22:27;5.07;;;1.52;;
35444;SDS011;21562;49.476;6.086;2022-11-20T13:24:54;5.75;;;1.42;;
35444;SDS011;21562;49.476;6.086;2022-11-20T13:27:23;6.55;;;1.30;;
35444;SDS011;21562;49.476;6.086;2022-11-20T13:30:11;8.88;;;1.90;;
35444;SDS011;21562;49.476;6.086;2022-11-20T13:35:30;6.50;;;1.67;;
35444;SDS011;21562;49.476;6.086;2022-11-20T13:38:05;6.25;;;2.10;;
35444;SDS011;21562;49.476;6.086;2022-11-20T13:40:50;8.75;;;2.05;;
35444;SDS011;21562;49.476;6.086;2022-11-20T13:43:27;9.70;;;2.00;;
35444;SDS011;21562;49.476;6.086;2022-11-20T13:46:01;12.40;;;1.92;;
35444;SDS011;21562;49.476;6.086;2022-11-20T13:48:30;7.90;;;1.60;;
35444;SDS011;21562;49.476;6.086;2022-11-20T13:56:09;9.57;;;2.08;;
35444;SDS011;21562;49.476;6.086;2022-11-20T14:01:29;7.53;;;1.88;;
35444;SDS011;21562;49.476;6.086;2022-11-20T14:03:59;5.28;;;2.08;;
35444;SDS011;21562;49.476;6.086;2022-11-20T14:06:41;6.88;;;1.92;;
35444;SDS011;21562;49.476;6.086;2022-11-20T14:09:13;6.90;;;1.80;;
35444;SDS011;21562;49.476;6.086;2022-11-20T14:11:55;6.20;;;1.77;;
35444;SDS011;21562;49.476;6.086;2022-11-20T14:14:23;8.80;;;2.10;;
35444;SDS011;21562;49.476;6.086;2022-11-20T14:19:45;7.20;;;1.83;;
35444;SDS011;21562;49.476;6.086;2022-11-20T14:22:20;4.93;;;1.70;;
35444;SDS011;21562;49.476;6.086;2022-11-20T14:24:49;10.77;;;1.55;;
35444;SDS011;21562;49.476;6.086;2022-11-20T14:27:25;6.72;;;1.45;;
35444;SDS011;21562;49.476;6.086;2022-11-20T14:29:51;4.43;;;1.50;;
35444;SDS011;21562;49.476;6.086;2022-11-20T14:32:17;4.70;;;1.60;;
35444;SDS011;21562;49.476;6.086;2022-11-20T14:34:47;4.25;;;1.67;;
35444;SDS011;21562;49.476;6.086;2022-11-20T14:37:21;9.18;;;1.77;;
35444;SDS011;21562;49.476;6.086;2022-11-20T14:39:53;8.13;;;1.92;;
35444;SDS011;21562;49.476;6.086;2022-11-20T14:42:22;7.10;;;1.75;;
35444;SDS011;21562;49.476;6.086;2022-11-20T14:44:52;7.40;;;2.20;;
35444;SDS011;21562;49.476;6.086;2022-11-20T14:47:21;8.90;;;2.00;;
35444;SDS011;21562;49.476;6.086;2022-11-20T14:49:50;7.15;;;1.83;;
35444;SDS011;21562;49.476;6.086;2022-11-20T14:52:21;10.20;;;2.60;;
35444;SDS011;21562;49.476;6.086;2022-11-20T14:54:50;7.22;;;2.65;;
35444;SDS011;21562;49.476;6.086;2022-11-20T14:59:51;10.50;;;2.03;;
35444;SDS011;21562;49.476;6.086;2022-11-20T15:02:28;12.10;;;1.90;;
35444;SDS011;21562;49.476;6.086;2022-11-20T15:04:59;9.00;;;2.17;;
35444;SDS011;21562;49.476;6.086;2022-11-20T15:07:32;6.03;;;1.38;;
35444;SDS011;21562;49.476;6.086;2022-11-20T15:10:07;4.70;;;2.50;;
35444;SDS011;21562;49.476;6.086;2022-11-20T15:12:39;4.45;;;1.20;;
35444;SDS011;21562;49.476;6.086;2022-11-20T15:15:11;7.43;;;1.63;;
35444;SDS011;21562;49.476;6.086;2022-11-20T15:17:39;8.15;;;1.48;;
35444;SDS011;21562;49.476;6.086;2022-11-20T15:20:09;4.95;;;1.90;;
35444;SDS011;21562;49.476;6.086;2022-11-20T15:22:38;4.10;;;1.10;;
35444;SDS011;21562;49.476;6.086;2022-11-20T15:25:11;4.20;;;1.90;;
35444;SDS011;21562;49.476;6.086;2022-11-20T15:27:41;8.50;;;2.05;;
35444;SDS011;21562;49.476;6.086;2022-11-20T15:30:17;5.65;;;1.58;;
35444;SDS011;21562;49.476;6.086;2022-11-20T15:32:44;4.85;;;1.38;;
35444;SDS011;21562;49.476;6.086;2022-11-20T15:35:13;7.38;;;1.73;;
35444;SDS011;21562;49.476;6.086;2022-11-20T15:37:40;4.15;;;1.20;;
35444;SDS011;21562;49.476;6.086;2022-11-20T15:40:06;4.00;;;1.63;;
35444;SDS011;21562;49.476;6.086;2022-11-20T15:42:33;3.55;;;1.67;;
35444;SDS011;21562;49.476;6.086;2022-11-20T15:44:59;11.73;;;1.88;;
35444;SDS011;21562;49.476;6.086;2022-11-20T15:47:26;7.10;;;1.73;;
35444;SDS011;21562;49.476;6.086;2022-11-20T15:49:54;3.55;;;1.30;;
35444;SDS011;21562;49.476;6.086;2022-11-20T15:52:20;2.83;;;1.33;;
35444;SDS011;21562;49.476;6.086;2022-11-20T15:54:46;7.75;;;1.73;;
35444;SDS011;21562;49.476;6.086;2022-11-20T15:57:12;3.92;;;2.00;;
35444;SDS011;21562;49.476;6.086;2022-11-20T15:59:38;6.07;;;2.05;;
35444;SDS011;21562;49.476;6.086;2022-11-20T16:02:12;8.77;;;2.70;;
35444;SDS011;21562;49.476;6.086;2022-11-20T16:04:39;8.30;;;2.25;;
35444;SDS011;21562;49.476;6.086;2022-11-20T16:07:05;4.25;;;2.10;;
35444;SDS011;21562;49.476;6.086;2022-11-20T16:09:30;3.55;;;1.70;;
35444;SDS011;21562;49.476;6.086;2022-11-20T16:11:58;4.07;;;1.30;;
35444;SDS011;21562;49.476;6.086;2022-11-20T16:14:24;4.50;;;1.30;;
35444;SDS011;21562;49.476;6.086;2022-11-20T16:17:09;4.93;;;1.20;;
35444;SDS011;21562;49.476;6.086;2022-11-20T16:19:35;5.30;;;1.13;;
35444;SDS011;21562;49.476;6.086;2022-11-20T16:22:00;2.33;;;1.10;;